Time;durP1;ratioP1;P1;durP2;ratioP2;P2;SDS_P1;SDS_P2;PMS_P1;PMS_P2;Temp;Humidity;BMP_temperature;BMP_pressure;BME280_temperature;BME280_humidity;BME280_pressure;Samples;Min_cycle;Max_cycle;Signal;HPM_P1;HPM_P2
2024/02/17 00:00:42;;;;;;;9.149999;6.8;;;;;;;14.03;65.31445;95825.03;;;;
2024/02/17 00:01:42;;;;;;;13;6.9;;;;;;;13.94;66.36719;95824.08;;;;
2024/02/17 00:02:43;;;;;;;13;6.9;;;;;;;13.94;66.36719;95824.08;;;;
2024/02/17 00:03:43;;;;;;;13;6.9;;;;;;;13.94;66.36719;95824.08;;;;
2024/02/17 00:04:44;;;;;;;13;6.9;;;;;;;13.94;66.36719;95824.08;;;;
2024/02/17 00:05:44;;;;;;;13;6.9;;;;;;;13.94;66.36719;95824.08;;;;
2024/02/17 00:06:45;;;;;;;13;6.9;;;;;;;13.94;66.36719;95824.08;;;;
2024/02/17 00:07:45;;;;;;;13;6.9;;;;;;;13.94;66.36719;95824.08;;;;
2024/02/17 00:08:46;;;;;;;13;6.9;;;;;;;13.94;66.36719;95824.08;;;;
2024/02/17 00:09:46;;;;;;;13;6.9;;;;;;;13.94;66.36719;95824.08;;;;
2024/02/17 00:10:47;;;;;;;13;6.9;;;;;;;13.94;66.36719;95824.08;;;;
2024/02/17 00:11:47;;;;;;;13;6.9;;;;;;;13.94;66.36719;95824.08;;;;
2024/02/17 00:12:48;;;;;;;9.949999;8;;;;;;;13.85;67.53711;95833.48;;;;
2024/02/17 00:13:48;;;;;;;9.949999;8;;;;;;;13.85;67.53711;95833.48;;;;
2024/02/17 00:14:49;;;;;;;9.949999;8;;;;;;;13.85;67.53711;95833.48;;;;
2024/02/17 00:15:49;;;;;;;9.949999;8;;;;;;;13.85;67.53711;95833.48;;;;
2024/02/17 00:16:50;;;;;;;9.949999;8;;;;;;;13.85;67.53711;95833.48;;;;
2024/02/17 00:17:50;;;;;;;9.949999;8;;;;;;;13.85;67.53711;95833.48;;;;
2024/02/17 00:18:51;;;;;;;9.949999;8;;;;;;;13.85;67.53711;95833.48;;;;
2024/02/17 00:19:51;;;;;;;9.949999;8;;;;;;;13.85;67.53711;95833.48;;;;
2024/02/17 00:20:52;;;;;;;9.949999;8;;;;;;;13.85;67.53711;95833.48;;;;
2024/02/17 00:21:53;;;;;;;9.949999;8;;;;;;;13.85;67.53711;95833.48;;;;
2024/02/17 00:22:53;;;;;;;12.75;8.4;;;;;;;13.74;69.07227;95847.49;;;;
2024/02/17 00:23:54;;;;;;;12.75;8.4;;;;;;;13.74;69.07227;95847.49;;;;
2024/02/17 00:24:54;;;;;;;12.75;8.4;;;;;;;13.74;69.07227;95847.49;;;;
2024/02/17 00:25:54;;;;;;;12.75;8.4;;;;;;;13.74;69.07227;95847.49;;;;
2024/02/17 00:26:55;;;;;;;12.75;8.4;;;;;;;13.74;69.07227;95847.49;;;;
2024/02/17 00:27:55;;;;;;;12.75;8.4;;;;;;;13.74;69.07227;95847.49;;;;
2024/02/17 00:28:57;;;;;;;12.75;8.4;;;;;;;13.74;69.07227;95847.49;;;;
2024/02/17 00:29:57;;;;;;;12.75;8.4;;;;;;;13.74;69.07227;95847.49;;;;
2024/02/17 00:30:58;;;;;;;12.75;8.4;;;;;;;13.74;69.07227;95847.49;;;;
2024/02/17 00:31:58;;;;;;;12.75;8.4;;;;;;;13.74;69.07227;95847.49;;;;
2024/02/17 00:32:59;;;;;;;12.75;8.4;;;;;;;13.74;69.07227;95847.49;;;;
2024/02/17 00:33:59;;;;;;;14.3;9.950001;;;;;;;13.71;70.08789;95858.95;;;;
2024/02/17 00:35:00;;;;;;;14.3;9.950001;;;;;;;13.71;70.08789;95858.95;;;;
2024/02/17 00:36:00;;;;;;;14.3;9.950001;;;;;;;13.71;70.08789;95858.95;;;;
2024/02/17 00:37:01;;;;;;;14.3;9.950001;;;;;;;13.71;70.08789;95858.95;;;;
2024/02/17 00:38:01;;;;;;;14.3;9.950001;;;;;;;13.71;70.08789;95858.95;;;;
2024/02/17 00:39:02;;;;;;;14.3;9.950001;;;;;;;13.71;70.08789;95858.95;;;;
2024/02/17 00:40:05;;;;;;;14.3;9.950001;;;;;;;13.71;70.08789;95858.95;;;;
2024/02/17 00:41:07;;;;;;;14.3;9.950001;;;;;;;13.71;70.08789;95858.95;;;;
2024/02/17 00:42:08;;;;;;;14.3;9.950001;;;;;;;13.71;70.08789;95858.95;;;;
2024/02/17 00:43:10;;;;;;;14.3;9.950001;;;;;;;13.71;70.08789;95858.95;;;;
2024/02/17 00:44:11;;;;;;;14.3;9.950001;;;;;;;13.71;70.08789;95858.95;;;;
2024/02/17 00:45:11;;;;;;;13.05;9.900001;;;;;;;13.68;71.04883;95866.04;;;;
2024/02/17 00:46:12;;;;;;;13.05;9.900001;;;;;;;13.68;71.04883;95866.04;;;;
2024/02/17 00:47:12;;;;;;;13.05;9.900001;;;;;;;13.68;71.04883;95866.04;;;;
2024/02/17 00:48:12;;;;;;;13.05;9.900001;;;;;;;13.68;71.04883;95866.04;;;;
2024/02/17 00:49:13;;;;;;;13.05;9.900001;;;;;;;13.68;71.04883;95866.04;;;;
2024/02/17 00:50:14;;;;;;;13.05;9.900001;;;;;;;13.68;71.04883;95866.04;;;;
2024/02/17 00:51:15;;;;;;;13.05;9.900001;;;;;;;13.68;71.04883;95866.04;;;;
2024/02/17 00:52:16;;;;;;;13.05;9.900001;;;;;;;13.68;71.04883;95866.04;;;;
2024/02/17 00:53:16;;;;;;;13.05;9.900001;;;;;;;13.68;71.04883;95866.04;;;;
2024/02/17 00:54:17;;;;;;;13.05;9.900001;;;;;;;13.68;71.04883;95866.04;;;;
2024/02/17 00:55:18;;;;;;;12.7;10.2;;;;;;;13.64;72.98438;95866.57;;;;
2024/02/17 00:56:21;;;;;;;12.7;10.2;;;;;;;13.64;72.98438;95866.57;;;;
2024/02/17 00:57:22;;;;;;;12.7;10.2;;;;;;;13.64;72.98438;95866.57;;;;
2024/02/17 00:58:22;;;;;;;12.7;10.2;;;;;;;13.64;72.98438;95866.57;;;;
2024/02/17 00:59:23;;;;;;;12.7;10.2;;;;;;;13.64;72.98438;95866.57;;;;
2024/02/17 01:00:24;;;;;;;12.7;10.2;;;;;;;13.64;72.98438;95866.57;;;;
2024/02/17 01:01:26;;;;;;;12.7;10.2;;;;;;;13.64;72.98438;95866.57;;;;
2024/02/17 01:02:31;;;;;;;12.7;10.2;;;;;;;13.64;72.98438;95866.57;;;;
2024/02/17 01:03:32;;;;;;;12.7;10.2;;;;;;;13.64;72.98438;95866.57;;;;
2024/02/17 01:04:32;;;;;;;12.7;10.2;;;;;;;13.64;72.98438;95866.57;;;;
2024/02/17 01:05:33;;;;;;;12.7;10.2;;;;;;;13.64;72.98438;95866.57;;;;
2024/02/17 01:06:33;;;;;;;13.3;11.15;;;;;;;13.61;74.44043;95870.58;;;;
2024/02/17 01:07:34;;;;;;;13.3;11.15;;;;;;;13.61;74.44043;95870.58;;;;
2024/02/17 01:08:35;;;;;;;13.3;11.15;;;;;;;13.61;74.44043;95870.58;;;;
2024/02/17 01:09:35;;;;;;;13.3;11.15;;;;;;;13.61;74.44043;95870.58;;;;
2024/02/17 01:10:36;;;;;;;13.3;11.15;;;;;;;13.61;74.44043;95870.58;;;;
2024/02/17 01:11:36;;;;;;;13.3;11.15;;;;;;;13.61;74.44043;95870.58;;;;
2024/02/17 01:12:37;;;;;;;13.3;11.15;;;;;;;13.61;74.44043;95870.58;;;;
2024/02/17 01:13:39;;;;;;;13.3;11.15;;;;;;;13.61;74.44043;95870.58;;;;
2024/02/17 01:14:40;;;;;;;13.3;11.15;;;;;;;13.61;74.44043;95870.58;;;;
2024/02/17 01:15:40;;;;;;;13.3;11.15;;;;;;;13.61;74.44043;95870.58;;;;
2024/02/17 01:16:43;;;;;;;15.85;11.95;;;;;;;13.61;75.45898;95881.62;;;;
2024/02/17 01:17:44;;;;;;;15.85;11.95;;;;;;;13.61;75.45898;95881.62;;;;
2024/02/17 01:18:44;;;;;;;15.85;11.95;;;;;;;13.61;75.45898;95881.62;;;;
2024/02/17 01:19:45;;;;;;;15.85;11.95;;;;;;;13.61;75.45898;95881.62;;;;
2024/02/17 01:20:45;;;;;;;15.85;11.95;;;;;;;13.61;75.45898;95881.62;;;;
2024/02/17 01:21:46;;;;;;;15.85;11.95;;;;;;;13.61;75.45898;95881.62;;;;
2024/02/17 01:22:46;;;;;;;15.85;11.95;;;;;;;13.61;75.45898;95881.62;;;;
2024/02/17 01:23:47;;;;;;;15.85;11.95;;;;;;;13.61;75.45898;95881.62;;;;
2024/02/17 01:24:47;;;;;;;15.85;11.95;;;;;;;13.61;75.45898;95881.62;;;;
2024/02/17 01:25:48;;;;;;;15.85;11.95;;;;;;;13.61;75.45898;95881.62;;;;
2024/02/17 01:26:48;;;;;;;15.85;11.95;;;;;;;13.61;75.45898;95881.62;;;;
2024/02/17 01:27:49;;;;;;;15.9;11.9;;;;;;;13.58;76.52637;95886.95;;;;
2024/02/17 01:28:49;;;;;;;15.9;11.9;;;;;;;13.58;76.52637;95886.95;;;;
2024/02/17 01:29:50;;;;;;;15.9;11.9;;;;;;;13.58;76.52637;95886.95;;;;
2024/02/17 01:30:50;;;;;;;15.9;11.9;;;;;;;13.58;76.52637;95886.95;;;;
2024/02/17 01:31:51;;;;;;;15.9;11.9;;;;;;;13.58;76.52637;95886.95;;;;
2024/02/17 01:32:52;;;;;;;15.9;11.9;;;;;;;13.58;76.52637;95886.95;;;;
2024/02/17 01:33:52;;;;;;;15.9;11.9;;;;;;;13.58;76.52637;95886.95;;;;
2024/02/17 01:34:53;;;;;;;15.9;11.9;;;;;;;13.58;76.52637;95886.95;;;;
2024/02/17 01:35:54;;;;;;;15.9;11.9;;;;;;;13.58;76.52637;95886.95;;;;
2024/02/17 01:36:54;;;;;;;15.9;11.9;;;;;;;13.58;76.52637;95886.95;;;;
2024/02/17 01:37:54;;;;;;;15.9;11.9;;;;;;;13.58;76.52637;95886.95;;;;
2024/02/17 01:38:55;;;;;;;16.4;13;;;;;;;13.53;77.34082;95893.84;;;;
2024/02/17 01:39:56;;;;;;;16.4;13;;;;;;;13.53;77.34082;95893.84;;;;
2024/02/17 01:40:58;;;;;;;16.4;13;;;;;;;13.53;77.34082;95893.84;;;;
2024/02/17 01:41:58;;;;;;;16.4;13;;;;;;;13.53;77.34082;95893.84;;;;
2024/02/17 01:42:59;;;;;;;16.4;13;;;;;;;13.53;77.34082;95893.84;;;;
2024/02/17 01:43:59;;;;;;;16.4;13;;;;;;;13.53;77.34082;95893.84;;;;
2024/02/17 01:45:01;;;;;;;16.4;13;;;;;;;13.53;77.34082;95893.84;;;;
2024/02/17 01:46:01;;;;;;;16.4;13;;;;;;;13.53;77.34082;95893.84;;;;
2024/02/17 01:47:02;;;;;;;16.4;13;;;;;;;13.53;77.34082;95893.84;;;;
2024/02/17 01:48:04;;;;;;;16.4;13;;;;;;;13.53;77.34082;95893.84;;;;
2024/02/17 01:49:05;;;;;;;16.9;12.55;;;;;;;13.58;77.74023;95894.39;;;;
2024/02/17 01:50:06;;;;;;;16.9;12.55;;;;;;;13.58;77.74023;95894.39;;;;
2024/02/17 01:51:08;;;;;;;16.9;12.55;;;;;;;13.58;77.74023;95894.39;;;;
2024/02/17 01:52:10;;;;;;;16.9;12.55;;;;;;;13.58;77.74023;95894.39;;;;
2024/02/17 01:53:10;;;;;;;16.9;12.55;;;;;;;13.58;77.74023;95894.39;;;;
2024/02/17 01:54:11;;;;;;;16.9;12.55;;;;;;;13.58;77.74023;95894.39;;;;
2024/02/17 01:55:12;;;;;;;16.9;12.55;;;;;;;13.58;77.74023;95894.39;;;;
2024/02/17 01:56:17;;;;;;;16.9;12.55;;;;;;;13.58;77.74023;95894.39;;;;
2024/02/17 01:57:18;;;;;;;16.9;12.55;;;;;;;13.58;77.74023;95894.39;;;;
2024/02/17 01:58:18;;;;;;;16.9;12.55;;;;;;;13.58;77.74023;95894.39;;;;
2024/02/17 01:59:19;;;;;;;16.9;12.55;;;;;;;13.58;77.74023;95894.39;;;;
2024/02/17 02:00:21;;;;;;;13.65;12.25;;;;;;;13.53;78.20605;95901.39;;;;
2024/02/17 02:01:22;;;;;;;13.65;12.25;;;;;;;13.53;78.20605;95901.39;;;;
2024/02/17 02:02:23;;;;;;;13.65;12.25;;;;;;;13.53;78.20605;95901.39;;;;
2024/02/17 02:03:24;;;;;;;13.65;12.25;;;;;;;13.53;78.20605;95901.39;;;;
2024/02/17 02:04:24;;;;;;;13.65;12.25;;;;;;;13.53;78.20605;95901.39;;;;
2024/02/17 02:05:24;;;;;;;13.65;12.25;;;;;;;13.53;78.20605;95901.39;;;;
2024/02/17 02:06:26;;;;;;;13.65;12.25;;;;;;;13.53;78.20605;95901.39;;;;
2024/02/17 02:07:27;;;;;;;13.65;12.25;;;;;;;13.53;78.20605;95901.39;;;;
2024/02/17 02:08:27;;;;;;;13.65;12.25;;;;;;;13.53;78.20605;95901.39;;;;
2024/02/17 02:09:28;;;;;;;13.65;12.25;;;;;;;13.53;78.20605;95901.39;;;;
2024/02/17 02:10:28;;;;;;;17.95;13.5;;;;;;;13.44;78.94922;95902.15;;;;
2024/02/17 02:11:29;;;;;;;17.95;13.5;;;;;;;13.44;78.94922;95902.15;;;;
2024/02/17 02:12:29;;;;;;;17.95;13.5;;;;;;;13.44;78.94922;95902.15;;;;
2024/02/17 02:13:30;;;;;;;17.95;13.5;;;;;;;13.44;78.94922;95902.15;;;;
2024/02/17 02:14:31;;;;;;;17.95;13.5;;;;;;;13.44;78.94922;95902.15;;;;
2024/02/17 02:15:33;;;;;;;17.95;13.5;;;;;;;13.44;78.94922;95902.15;;;;
2024/02/17 02:16:40;;;;;;;17.95;13.5;;;;;;;13.44;78.94922;95902.15;;;;
2024/02/17 02:17:40;;;;;;;17.95;13.5;;;;;;;13.44;78.94922;95902.15;;;;
2024/02/17 02:18:41;;;;;;;17.95;13.5;;;;;;;13.44;78.94922;95902.15;;;;
2024/02/17 02:19:41;;;;;;;17.95;13.5;;;;;;;13.44;78.94922;95902.15;;;;
2024/02/17 02:20:42;;;;;;;17.95;13.5;;;;;;;13.44;78.94922;95902.15;;;;
2024/02/17 02:21:43;;;;;;;17.95;13.5;;;;;;;13.44;78.94922;95902.15;;;;
2024/02/17 02:22:45;;;;;;;17.95;13.5;;;;;;;13.44;78.94922;95902.15;;;;
2024/02/17 02:23:45;;;;;;;17.95;13.5;;;;;;;13.44;78.94922;95902.15;;;;
2024/02/17 02:24:46;;;;;;;17.95;13.5;;;;;;;13.44;78.94922;95902.15;;;;
2024/02/17 02:25:50;;;;;;;17.95;13.5;;;;;;;13.44;78.94922;95902.15;;;;
2024/02/17 02:26:51;;;;;;;17.95;13.5;;;;;;;13.44;78.94922;95902.15;;;;
2024/02/17 02:27:52;;;;;;;17.95;13.5;;;;;;;13.44;78.94922;95902.15;;;;
2024/02/17 02:28:52;;;;;;;17.95;13.5;;;;;;;13.44;78.94922;95902.15;;;;
2024/02/17 02:29:55;;;;;;;17.95;13.5;;;;;;;13.44;78.94922;95902.15;;;;
2024/02/17 02:30:57;;;;;;;17.95;13.5;;;;;;;13.44;78.94922;95902.15;;;;
2024/02/17 02:31:58;;;;;;;17.95;13.5;;;;;;;13.44;78.94922;95902.15;;;;
2024/02/17 02:32:58;;;;;;;17.95;13.5;;;;;;;13.44;78.94922;95902.15;;;;
2024/02/17 02:33:59;;;;;;;17.95;13.5;;;;;;;13.44;78.94922;95902.15;;;;
2024/02/17 02:35:00;;;;;;;17.95;13.5;;;;;;;13.44;78.94922;95902.15;;;;
2024/02/17 02:36:00;;;;;;;17.95;13.5;;;;;;;13.44;78.94922;95902.15;;;;
2024/02/17 02:37:01;;;;;;;17.95;13.5;;;;;;;13.44;78.94922;95902.15;;;;
2024/02/17 02:38:02;;;;;;;17.95;13.5;;;;;;;13.44;78.94922;95902.15;;;;
2024/02/17 02:39:03;;;;;;;17.95;13.5;;;;;;;13.44;78.94922;95902.15;;;;
2024/02/17 02:40:04;;;;;;;17.95;13.5;;;;;;;13.44;78.94922;95902.15;;;;
2024/02/17 02:41:06;;;;;;;17.95;13.5;;;;;;;13.44;78.94922;95902.15;;;;
2024/02/17 02:42:06;;;;;;;17.95;13.5;;;;;;;13.44;78.94922;95902.15;;;;
2024/02/17 02:43:07;;;;;;;17.95;13.5;;;;;;;13.44;78.94922;95902.15;;;;
2024/02/17 02:44:07;;;;;;;17.95;13.5;;;;;;;13.44;78.94922;95902.15;;;;
2024/02/17 02:45:08;;;;;;;17.95;13.5;;;;;;;13.44;78.94922;95902.15;;;;
2024/02/17 02:46:09;;;;;;;17.95;13.5;;;;;;;13.44;78.94922;95902.15;;;;
2024/02/17 02:47:10;;;;;;;17.95;13.5;;;;;;;13.44;78.94922;95902.15;;;;
2024/02/17 02:48:11;;;;;;;17.95;13.5;;;;;;;13.44;78.94922;95902.15;;;;
2024/02/17 02:49:11;;;;;;;17.95;13.5;;;;;;;13.44;78.94922;95902.15;;;;
2024/02/17 02:50:11;;;;;;;17.95;13.5;;;;;;;13.44;78.94922;95902.15;;;;
2024/02/17 02:51:12;;;;;;;17.95;13.5;;;;;;;13.44;78.94922;95902.15;;;;
2024/02/17 02:52:15;;;;;;;17.95;13.5;;;;;;;13.44;78.94922;95902.15;;;;
2024/02/17 02:53:16;;;;;;;19.2;14.75;;;;;;;13.45;81.24121;95920.24;;;;
2024/02/17 02:54:18;;;;;;;19.2;14.75;;;;;;;13.45;81.24121;95920.24;;;;
2024/02/17 02:55:19;;;;;;;19.2;14.75;;;;;;;13.45;81.24121;95920.24;;;;
2024/02/17 02:56:19;;;;;;;19.2;14.75;;;;;;;13.45;81.24121;95920.24;;;;
2024/02/17 02:57:20;;;;;;;19.2;14.75;;;;;;;13.45;81.24121;95920.24;;;;
2024/02/17 02:58:20;;;;;;;19.2;14.75;;;;;;;13.45;81.24121;95920.24;;;;
2024/02/17 02:59:21;;;;;;;19.2;14.75;;;;;;;13.45;81.24121;95920.24;;;;
2024/02/17 03:00:21;;;;;;;19.2;14.75;;;;;;;13.45;81.24121;95920.24;;;;
2024/02/17 03:01:22;;;;;;;19.2;14.75;;;;;;;13.45;81.24121;95920.24;;;;
2024/02/17 03:02:22;;;;;;;19.2;14.75;;;;;;;13.45;81.24121;95920.24;;;;
2024/02/17 03:03:23;;;;;;;19.2;14.75;;;;;;;13.45;81.24121;95920.24;;;;
2024/02/17 03:04:23;;;;;;;18.1;14.75;;;;;;;13.46;81.74121;95928.91;;;;
2024/02/17 03:05:24;;;;;;;18.1;14.75;;;;;;;13.46;81.74121;95928.91;;;;
2024/02/17 03:06:25;;;;;;;18.1;14.75;;;;;;;13.46;81.74121;95928.91;;;;
2024/02/17 03:07:27;;;;;;;18.1;14.75;;;;;;;13.46;81.74121;95928.91;;;;
2024/02/17 03:08:28;;;;;;;18.1;14.75;;;;;;;13.46;81.74121;95928.91;;;;
2024/02/17 03:09:28;;;;;;;18.1;14.75;;;;;;;13.46;81.74121;95928.91;;;;
2024/02/17 03:10:28;;;;;;;18.1;14.75;;;;;;;13.46;81.74121;95928.91;;;;
2024/02/17 03:11:29;;;;;;;18.1;14.75;;;;;;;13.46;81.74121;95928.91;;;;
2024/02/17 03:12:30;;;;;;;18.1;14.75;;;;;;;13.46;81.74121;95928.91;;;;
2024/02/17 03:13:30;;;;;;;18.1;14.75;;;;;;;13.46;81.74121;95928.91;;;;
2024/02/17 03:14:31;;;;;;;21.5;16.35;;;;;;;13.47;82.13086;95927.48;;;;
2024/02/17 03:15:31;;;;;;;21.5;16.35;;;;;;;13.47;82.13086;95927.48;;;;
2024/02/17 03:16:31;;;;;;;21.5;16.35;;;;;;;13.47;82.13086;95927.48;;;;
2024/02/17 03:17:32;;;;;;;21.5;16.35;;;;;;;13.47;82.13086;95927.48;;;;
2024/02/17 03:18:32;;;;;;;21.5;16.35;;;;;;;13.47;82.13086;95927.48;;;;
2024/02/17 03:19:33;;;;;;;21.5;16.35;;;;;;;13.47;82.13086;95927.48;;;;
2024/02/17 03:20:34;;;;;;;21.5;16.35;;;;;;;13.47;82.13086;95927.48;;;;
2024/02/17 03:21:34;;;;;;;21.5;16.35;;;;;;;13.47;82.13086;95927.48;;;;
2024/02/17 03:22:35;;;;;;;21.5;16.35;;;;;;;13.47;82.13086;95927.48;;;;
2024/02/17 03:23:35;;;;;;;21.5;16.35;;;;;;;13.47;82.13086;95927.48;;;;
2024/02/17 03:24:35;;;;;;;21.5;16.35;;;;;;;13.47;82.13086;95927.48;;;;
2024/02/17 03:25:36;;;;;;;21.5;16.35;;;;;;;13.47;82.13086;95927.48;;;;
2024/02/17 03:26:36;;;;;;;21.5;16.35;;;;;;;13.47;82.13086;95927.48;;;;
2024/02/17 03:27:37;;;;;;;21.5;16.35;;;;;;;13.47;82.13086;95927.48;;;;
2024/02/17 03:28:38;;;;;;;21.5;16.35;;;;;;;13.47;82.13086;95927.48;;;;
2024/02/17 03:29:38;;;;;;;21.5;16.35;;;;;;;13.47;82.13086;95927.48;;;;
2024/02/17 03:30:40;;;;;;;21.5;16.35;;;;;;;13.47;82.13086;95927.48;;;;
2024/02/17 03:31:41;;;;;;;21.5;16.35;;;;;;;13.47;82.13086;95927.48;;;;
2024/02/17 03:32:41;;;;;;;21.5;16.35;;;;;;;13.47;82.13086;95927.48;;;;
2024/02/17 03:33:42;;;;;;;21.5;16.35;;;;;;;13.47;82.13086;95927.48;;;;
2024/02/17 03:34:42;;;;;;;21.5;16.35;;;;;;;13.47;82.13086;95927.48;;;;
2024/02/17 03:35:43;;;;;;;21.5;16.35;;;;;;;13.47;82.13086;95927.48;;;;
2024/02/17 03:36:43;;;;;;;21.5;16.35;;;;;;;13.47;82.13086;95927.48;;;;
2024/02/17 03:37:44;;;;;;;21.5;16.35;;;;;;;13.47;82.13086;95927.48;;;;
2024/02/17 03:38:44;;;;;;;21.5;16.35;;;;;;;13.47;82.13086;95927.48;;;;
2024/02/17 03:39:45;;;;;;;21.5;16.35;;;;;;;13.47;82.13086;95927.48;;;;
2024/02/17 03:40:46;;;;;;;21.5;16.35;;;;;;;13.47;82.13086;95927.48;;;;
2024/02/17 03:41:46;;;;;;;21.5;16.35;;;;;;;13.47;82.13086;95927.48;;;;
2024/02/17 03:42:47;;;;;;;21.5;16.35;;;;;;;13.47;82.13086;95927.48;;;;
2024/02/17 03:43:47;;;;;;;21.5;16.35;;;;;;;13.47;82.13086;95927.48;;;;
2024/02/17 03:44:48;;;;;;;21.5;16.35;;;;;;;13.47;82.13086;95927.48;;;;
2024/02/17 03:45:48;;;;;;;21.5;16.35;;;;;;;13.47;82.13086;95927.48;;;;
2024/02/17 03:46:49;;;;;;;20.35;15.7;;;;;;;13.37;83.70117;95957.67;;;;
2024/02/17 03:47:49;;;;;;;20.35;15.7;;;;;;;13.37;83.70117;95957.67;;;;
2024/02/17 03:48:50;;;;;;;20.35;15.7;;;;;;;13.37;83.70117;95957.67;;;;
2024/02/17 03:49:50;;;;;;;20.35;15.7;;;;;;;13.37;83.70117;95957.67;;;;
2024/02/17 03:50:51;;;;;;;20.35;15.7;;;;;;;13.37;83.70117;95957.67;;;;
2024/02/17 03:51:51;;;;;;;20.35;15.7;;;;;;;13.37;83.70117;95957.67;;;;
2024/02/17 03:52:52;;;;;;;20.35;15.7;;;;;;;13.37;83.70117;95957.67;;;;
2024/02/17 03:53:52;;;;;;;20.35;15.7;;;;;;;13.37;83.70117;95957.67;;;;
2024/02/17 03:54:53;;;;;;;20.35;15.7;;;;;;;13.37;83.70117;95957.67;;;;
2024/02/17 03:55:54;;;;;;;20.35;15.7;;;;;;;13.37;83.70117;95957.67;;;;
2024/02/17 03:56:54;;;;;;;20.35;15.7;;;;;;;13.37;83.70117;95957.67;;;;
2024/02/17 03:57:55;;;;;;;20.55;16;;;;;;;13.29;84.31055;95968.55;;;;
2024/02/17 03:58:55;;;;;;;20.55;16;;;;;;;13.29;84.31055;95968.55;;;;
2024/02/17 03:59:56;;;;;;;20.55;16;;;;;;;13.29;84.31055;95968.55;;;;
2024/02/17 04:00:56;;;;;;;20.55;16;;;;;;;13.29;84.31055;95968.55;;;;
2024/02/17 04:01:59;;;;;;;20.55;16;;;;;;;13.29;84.31055;95968.55;;;;
2024/02/17 04:02:59;;;;;;;20.55;16;;;;;;;13.29;84.31055;95968.55;;;;
2024/02/17 04:04:03;;;;;;;20.55;16;;;;;;;13.29;84.31055;95968.55;;;;
2024/02/17 04:05:04;;;;;;;20.55;16;;;;;;;13.29;84.31055;95968.55;;;;
2024/02/17 04:06:06;;;;;;;20.55;16;;;;;;;13.29;84.31055;95968.55;;;;
2024/02/17 04:07:06;;;;;;;20.55;16;;;;;;;13.29;84.31055;95968.55;;;;
2024/02/17 04:08:07;;;;;;;19.4;15.75;;;;;;;13.28;84.52539;95980.17;;;;
2024/02/17 04:09:07;;;;;;;19.4;15.75;;;;;;;13.28;84.52539;95980.17;;;;
2024/02/17 04:10:07;;;;;;;19.4;15.75;;;;;;;13.28;84.52539;95980.17;;;;
2024/02/17 04:11:09;;;;;;;19.4;15.75;;;;;;;13.28;84.52539;95980.17;;;;
2024/02/17 04:12:09;;;;;;;19.4;15.75;;;;;;;13.28;84.52539;95980.17;;;;
2024/02/17 04:13:10;;;;;;;19.4;15.75;;;;;;;13.28;84.52539;95980.17;;;;
2024/02/17 04:14:11;;;;;;;19.4;15.75;;;;;;;13.28;84.52539;95980.17;;;;
2024/02/17 04:15:11;;;;;;;19.4;15.75;;;;;;;13.28;84.52539;95980.17;;;;
2024/02/17 04:16:12;;;;;;;19.4;15.75;;;;;;;13.28;84.52539;95980.17;;;;
2024/02/17 04:17:12;;;;;;;19.4;15.75;;;;;;;13.28;84.52539;95980.17;;;;
2024/02/17 04:18:13;;;;;;;19.4;15.75;;;;;;;13.28;84.52539;95980.17;;;;
2024/02/17 04:19:13;;;;;;;21.2;17.5;;;;;;;13.24;84.80957;95986.03;;;;
2024/02/17 04:20:13;;;;;;;21.2;17.5;;;;;;;13.24;84.80957;95986.03;;;;
2024/02/17 04:21:14;;;;;;;21.2;17.5;;;;;;;13.24;84.80957;95986.03;;;;
2024/02/17 04:22:16;;;;;;;21.2;17.5;;;;;;;13.24;84.80957;95986.03;;;;
2024/02/17 04:23:16;;;;;;;21.2;17.5;;;;;;;13.24;84.80957;95986.03;;;;
2024/02/17 04:24:17;;;;;;;21.2;17.5;;;;;;;13.24;84.80957;95986.03;;;;
2024/02/17 04:25:17;;;;;;;21.2;17.5;;;;;;;13.24;84.80957;95986.03;;;;
2024/02/17 04:26:18;;;;;;;21.2;17.5;;;;;;;13.24;84.80957;95986.03;;;;
2024/02/17 04:27:19;;;;;;;21.2;17.5;;;;;;;13.24;84.80957;95986.03;;;;
2024/02/17 04:28:20;;;;;;;21.2;17.5;;;;;;;13.24;84.80957;95986.03;;;;
2024/02/17 04:29:20;;;;;;;19.45;17.35;;;;;;;13.23;84.94824;96007.36;;;;
2024/02/17 04:30:21;;;;;;;19.45;17.35;;;;;;;13.23;84.94824;96007.36;;;;
2024/02/17 04:31:21;;;;;;;19.45;17.35;;;;;;;13.23;84.94824;96007.36;;;;
2024/02/17 04:32:22;;;;;;;19.45;17.35;;;;;;;13.23;84.94824;96007.36;;;;
2024/02/17 04:35:23;;;;;;;19.45;17.35;;;;;;;13.23;84.94824;96007.36;;;;
2024/02/17 04:36:24;;;;;;;19.45;17.35;;;;;;;13.23;84.94824;96007.36;;;;
2024/02/17 04:37:24;;;;;;;19.45;17.35;;;;;;;13.23;84.94824;96007.36;;;;
2024/02/17 04:38:24;;;;;;;19.45;17.35;;;;;;;13.23;84.94824;96007.36;;;;
2024/02/17 04:39:25;;;;;;;19.45;17.35;;;;;;;13.23;84.94824;96007.36;;;;
2024/02/17 04:40:26;;;;;;;19.85;16.85;;;;;;;13.21;85.13867;96021.35;;;;
2024/02/17 04:41:27;;;;;;;19.85;16.85;;;;;;;13.21;85.13867;96021.35;;;;
2024/02/17 04:42:27;;;;;;;19.85;16.85;;;;;;;13.21;85.13867;96021.35;;;;
2024/02/17 04:43:28;;;;;;;19.85;16.85;;;;;;;13.21;85.13867;96021.35;;;;
2024/02/17 04:44:28;;;;;;;19.85;16.85;;;;;;;13.21;85.13867;96021.35;;;;
2024/02/17 04:45:29;;;;;;;19.85;16.85;;;;;;;13.21;85.13867;96021.35;;;;
2024/02/17 04:46:29;;;;;;;19.85;16.85;;;;;;;13.21;85.13867;96021.35;;;;
2024/02/17 04:47:30;;;;;;;19.85;16.85;;;;;;;13.21;85.13867;96021.35;;;;
2024/02/17 04:48:30;;;;;;;19.85;16.85;;;;;;;13.21;85.13867;96021.35;;;;
2024/02/17 04:49:31;;;;;;;19.85;16.85;;;;;;;13.21;85.13867;96021.35;;;;
2024/02/17 04:50:31;;;;;;;19.85;16.85;;;;;;;13.21;85.13867;96021.35;;;;
2024/02/17 04:51:32;;;;;;;19.65;16.6;;;;;;;13.18;85.26074;96031.59;;;;
2024/02/17 04:52:32;;;;;;;19.65;16.6;;;;;;;13.18;85.26074;96031.59;;;;
2024/02/17 04:53:33;;;;;;;19.65;16.6;;;;;;;13.18;85.26074;96031.59;;;;
2024/02/17 04:54:33;;;;;;;19.65;16.6;;;;;;;13.18;85.26074;96031.59;;;;
2024/02/17 04:55:34;;;;;;;19.65;16.6;;;;;;;13.18;85.26074;96031.59;;;;
2024/02/17 04:56:34;;;;;;;19.65;16.6;;;;;;;13.18;85.26074;96031.59;;;;
2024/02/17 04:57:35;;;;;;;19.65;16.6;;;;;;;13.18;85.26074;96031.59;;;;
2024/02/17 04:58:35;;;;;;;19.65;16.6;;;;;;;13.18;85.26074;96031.59;;;;
2024/02/17 04:59:36;;;;;;;19.65;16.6;;;;;;;13.18;85.26074;96031.59;;;;
2024/02/17 05:00:36;;;;;;;19.65;16.6;;;;;;;13.18;85.26074;96031.59;;;;
2024/02/17 05:01:37;;;;;;;20.55;17.25;;;;;;;13.15;85.4834;96045.17;;;;
2024/02/17 05:02:37;;;;;;;20.55;17.25;;;;;;;13.15;85.4834;96045.17;;;;
2024/02/17 05:03:38;;;;;;;20.55;17.25;;;;;;;13.15;85.4834;96045.17;;;;
2024/02/17 05:04:39;;;;;;;20.55;17.25;;;;;;;13.15;85.4834;96045.17;;;;
2024/02/17 05:05:39;;;;;;;20.55;17.25;;;;;;;13.15;85.4834;96045.17;;;;
2024/02/17 05:06:40;;;;;;;20.55;17.25;;;;;;;13.15;85.4834;96045.17;;;;
2024/02/17 05:07:40;;;;;;;20.55;17.25;;;;;;;13.15;85.4834;96045.17;;;;
2024/02/17 05:08:40;;;;;;;20.55;17.25;;;;;;;13.15;85.4834;96045.17;;;;
2024/02/17 05:09:41;;;;;;;20.55;17.25;;;;;;;13.15;85.4834;96045.17;;;;
2024/02/17 05:10:41;;;;;;;20.55;17.25;;;;;;;13.15;85.4834;96045.17;;;;
2024/02/17 05:11:42;;;;;;;20.55;17.25;;;;;;;13.15;85.4834;96045.17;;;;
2024/02/17 05:12:42;;;;;;;20.45;16.55;;;;;;;13.16;85.46191;96060.6;;;;
2024/02/17 05:13:43;;;;;;;20.45;16.55;;;;;;;13.16;85.46191;96060.6;;;;
2024/02/17 05:14:43;;;;;;;20.45;16.55;;;;;;;13.16;85.46191;96060.6;;;;
2024/02/17 05:15:44;;;;;;;20.45;16.55;;;;;;;13.16;85.46191;96060.6;;;;
2024/02/17 05:16:44;;;;;;;20.45;16.55;;;;;;;13.16;85.46191;96060.6;;;;
2024/02/17 05:17:45;;;;;;;20.45;16.55;;;;;;;13.16;85.46191;96060.6;;;;
2024/02/17 05:18:46;;;;;;;20.45;16.55;;;;;;;13.16;85.46191;96060.6;;;;
2024/02/17 05:19:46;;;;;;;20.45;16.55;;;;;;;13.16;85.46191;96060.6;;;;
2024/02/17 05:20:47;;;;;;;20.45;16.55;;;;;;;13.16;85.46191;96060.6;;;;
2024/02/17 05:21:48;;;;;;;20.45;16.55;;;;;;;13.16;85.46191;96060.6;;;;
2024/02/17 05:22:48;;;;;;;20.45;16.55;;;;;;;13.16;85.46191;96060.6;;;;
2024/02/17 05:23:48;;;;;;;19.4;16.45;;;;;;;13.1;85.78516;96069.37;;;;
2024/02/17 05:24:50;;;;;;;19.4;16.45;;;;;;;13.1;85.78516;96069.37;;;;
2024/02/17 05:25:51;;;;;;;19.4;16.45;;;;;;;13.1;85.78516;96069.37;;;;
2024/02/17 05:26:52;;;;;;;19.4;16.45;;;;;;;13.1;85.78516;96069.37;;;;
2024/02/17 05:27:53;;;;;;;19.4;16.45;;;;;;;13.1;85.78516;96069.37;;;;
2024/02/17 05:28:53;;;;;;;19.4;16.45;;;;;;;13.1;85.78516;96069.37;;;;
2024/02/17 05:29:54;;;;;;;19.4;16.45;;;;;;;13.1;85.78516;96069.37;;;;
2024/02/17 05:30:55;;;;;;;19.4;16.45;;;;;;;13.1;85.78516;96069.37;;;;
2024/02/17 05:31:55;;;;;;;19.4;16.45;;;;;;;13.1;85.78516;96069.37;;;;
2024/02/17 05:32:56;;;;;;;19.4;16.45;;;;;;;13.1;85.78516;96069.37;;;;
2024/02/17 05:33:56;;;;;;;17.3;15.45;;;;;;;13.11;85.70313;96083.76;;;;
2024/02/17 05:34:57;;;;;;;17.3;15.45;;;;;;;13.11;85.70313;96083.76;;;;
2024/02/17 05:35:57;;;;;;;17.3;15.45;;;;;;;13.11;85.70313;96083.76;;;;
2024/02/17 05:36:59;;;;;;;17.3;15.45;;;;;;;13.11;85.70313;96083.76;;;;
2024/02/17 05:38:00;;;;;;;17.3;15.45;;;;;;;13.11;85.70313;96083.76;;;;
2024/02/17 05:39:00;;;;;;;17.3;15.45;;;;;;;13.11;85.70313;96083.76;;;;
2024/02/17 05:40:01;;;;;;;17.3;15.45;;;;;;;13.11;85.70313;96083.76;;;;
2024/02/17 05:41:02;;;;;;;17.3;15.45;;;;;;;13.11;85.70313;96083.76;;;;